sensor_id;sensor_type;location;lat;lon;timestamp;temperature;humidity
78541;SHT31;67835;51.968;5.646;2024-03-22T00:00:45;13.8;69.1
78541;SHT31;67835;51.968;5.646;2024-03-22T00:03:13;13.8;69.2
78541;SHT31;67835;51.968;5.646;2024-03-22T00:05:42;13.8;69.2
78541;SHT31;67835;51.968;5.646;2024-03-22T00:08:12;13.8;69.3
78541;SHT31;67835;51.968;5.646;2024-03-22T00:10:43;13.8;69.4
78541;SHT31;67835;51.968;5.646;2024-03-22T00:13:11;13.9;69.4
78541;SHT31;67835;51.968;5.646;2024-03-22T00:15:40;13.9;69.5
78541;SHT31;67835;51.968;5.646;2024-03-22T00:18:08;13.9;69.5
78541;SHT31;67835;51.968;5.646;2024-03-22T00:20:37;13.9;69.5
78541;SHT31;67835;51.968;5.646;2024-03-22T00:23:05;13.9;69.6
78541;SHT31;67835;51.968;5.646;2024-03-22T00:25:36;13.9;69.7
78541;SHT31;67835;51.968;5.646;2024-03-22T00:28:05;14.0;69.7
78541;SHT31;67835;51.968;5.646;2024-03-22T00:30:34;14.0;69.7
78541;SHT31;67835;51.968;5.646;2024-03-22T00:33:02;14.0;69.8
78541;SHT31;67835;51.968;5.646;2024-03-22T00:35:31;14.0;69.9
78541;SHT31;67835;51.968;5.646;2024-03-22T00:37:59;14.0;70.0
78541;SHT31;67835;51.968;5.646;2024-03-22T00:40:28;14.0;69.9
78541;SHT31;67835;51.968;5.646;2024-03-22T00:42:56;14.0;70.0
78541;SHT31;67835;51.968;5.646;2024-03-22T00:45:25;14.0;70.0
78541;SHT31;67835;51.968;5.646;2024-03-22T00:47:53;14.1;70.1
78541;SHT31;67835;51.968;5.646;2024-03-22T00:50:22;14.1;70.2
78541;SHT31;67835;51.968;5.646;2024-03-22T00:52:52;14.1;70.2
78541;SHT31;67835;51.968;5.646;2024-03-22T00:55:23;14.1;70.2
78541;SHT31;67835;51.968;5.646;2024-03-22T00:57:52;14.1;70.3
78541;SHT31;67835;51.968;5.646;2024-03-22T01:00:20;14.1;70.3
78541;SHT31;67835;51.968;5.646;2024-03-22T01:02:49;14.1;70.3
78541;SHT31;67835;51.968;5.646;2024-03-22T01:05:18;14.1;70.3
78541;SHT31;67835;51.968;5.646;2024-03-22T01:07:47;14.1;70.4
78541;SHT31;67835;51.968;5.646;2024-03-22T01:10:15;14.0;70.3
78541;SHT31;67835;51.968;5.646;2024-03-22T01:12:45;14.0;70.4
78541;SHT31;67835;51.968;5.646;2024-03-22T01:15:13;14.0;70.5
78541;SHT31;67835;51.968;5.646;2024-03-22T01:17:42;14.0;70.5
78541;SHT31;67835;51.968;5.646;2024-03-22T01:20:11;14.0;70.6
78541;SHT31;67835;51.968;5.646;2024-03-22T01:22:40;14.0;70.7
78541;SHT31;67835;51.968;5.646;2024-03-22T01:25:09;13.9;70.8
78541;SHT31;67835;51.968;5.646;2024-03-22T01:27:38;13.9;70.8
78541;SHT31;67835;51.968;5.646;2024-03-22T01:30:08;13.9;70.8
78541;SHT31;67835;51.968;5.646;2024-03-22T01:32:37;13.9;70.9
78541;SHT31;67835;51.968;5.646;2024-03-22T01:35:07;13.9;71.0
78541;SHT31;67835;51.968;5.646;2024-03-22T01:37:36;13.9;71.0
78541;SHT31;67835;51.968;5.646;2024-03-22T01:40:05;13.9;71.0
78541;SHT31;67835;51.968;5.646;2024-03-22T01:42:34;13.9;71.1
78541;SHT31;67835;51.968;5.646;2024-03-22T01:45:03;13.8;71.2
78541;SHT31;67835;51.968;5.646;2024-03-22T01:47:33;13.8;71.2
78541;SHT31;67835;51.968;5.646;2024-03-22T01:50:02;13.8;71.2
78541;SHT31;67835;51.968;5.646;2024-03-22T01:52:31;13.8;71.2
78541;SHT31;67835;51.968;5.646;2024-03-22T01:54:59;13.8;71.2
78541;SHT31;67835;51.968;5.646;2024-03-22T01:57:29;13.8;71.1
78541;SHT31;67835;51.968;5.646;2024-03-22T01:59:59;13.8;71.1
78541;SHT31;67835;51.968;5.646;2024-03-22T02:02:30;13.8;71.1
78541;SHT31;67835;51.968;5.646;2024-03-22T02:05:05;13.8;71.2
78541;SHT31;67835;51.968;5.646;2024-03-22T02:07:36;13.8;71.2
78541;SHT31;67835;51.968;5.646;2024-03-22T02:10:05;13.8;71.3
78541;SHT31;67835;51.968;5.646;2024-03-22T02:12:39;13.8;71.3
78541;SHT31;67835;51.968;5.646;2024-03-22T02:15:09;13.8;71.4
78541;SHT31;67835;51.968;5.646;2024-03-22T02:17:38;13.8;71.3
78541;SHT31;67835;51.968;5.646;2024-03-22T02:20:07;13.8;71.3
78541;SHT31;67835;51.968;5.646;2024-03-22T02:22:36;13.8;71.4
78541;SHT31;67835;51.968;5.646;2024-03-22T02:25:06;13.9;71.3
78541;SHT31;67835;51.968;5.646;2024-03-22T02:27:35;13.9;71.1
78541;SHT31;67835;51.968;5.646;2024-03-22T02:30:05;13.9;71.1
78541;SHT31;67835;51.968;5.646;2024-03-22T02:32:33;13.9;71.1
78541;SHT31;67835;51.968;5.646;2024-03-22T02:35:04;13.9;71.0
78541;SHT31;67835;51.968;5.646;2024-03-22T02:37:33;13.9;71.1
78541;SHT31;67835;51.968;5.646;2024-03-22T02:40:01;13.9;71.1
78541;SHT31;67835;51.968;5.646;2024-03-22T02:42:30;13.9;71.1
78541;SHT31;67835;51.968;5.646;2024-03-22T02:44:58;13.9;71.2
78541;SHT31;67835;51.968;5.646;2024-03-22T02:47:28;13.9;71.2
78541;SHT31;67835;51.968;5.646;2024-03-22T02:49:57;13.9;71.0
78541;SHT31;67835;51.968;5.646;2024-03-22T02:52:25;13.9;70.9
78541;SHT31;67835;51.968;5.646;2024-03-22T02:54:54;14.0;70.7
78541;SHT31;67835;51.968;5.646;2024-03-22T02:57:22;14.0;70.4
78541;SHT31;67835;51.968;5.646;2024-03-22T02:59:51;14.0;70.3
78541;SHT31;67835;51.968;5.646;2024-03-22T03:02:19;14.0;70.0
78541;SHT31;67835;51.968;5.646;2024-03-22T03:04:48;14.0;69.9
78541;SHT31;67835;51.968;5.646;2024-03-22T03:07:17;14.0;69.7
78541;SHT31;67835;51.968;5.646;2024-03-22T03:09:45;14.0;69.5
78541;SHT31;67835;51.968;5.646;2024-03-22T03:12:16;14.0;69.3
78541;SHT31;67835;51.968;5.646;2024-03-22T03:14:44;14.0;69.3
78541;SHT31;67835;51.968;5.646;2024-03-22T03:17:13;14.0;69.3
78541;SHT31;67835;51.968;5.646;2024-03-22T03:19:41;14.0;69.4
78541;SHT31;67835;51.968;5.646;2024-03-22T03:22:10;14.0;69.4
78541;SHT31;67835;51.968;5.646;2024-03-22T03:24:38;14.0;69.6
78541;SHT31;67835;51.968;5.646;2024-03-22T03:27:07;14.0;69.7
78541;SHT31;67835;51.968;5.646;2024-03-22T03:29:36;14.0;69.7
78541;SHT31;67835;51.968;5.646;2024-03-22T03:32:05;14.0;69.7
78541;SHT31;67835;51.968;5.646;2024-03-22T03:34:34;14.0;69.7
78541;SHT31;67835;51.968;5.646;2024-03-22T03:37:02;14.0;69.7
78541;SHT31;67835;51.968;5.646;2024-03-22T03:39:31;14.0;69.7
78541;SHT31;67835;51.968;5.646;2024-03-22T03:41:59;14.1;69.7
78541;SHT31;67835;51.968;5.646;2024-03-22T03:44:28;14.1;69.6
78541;SHT31;67835;51.968;5.646;2024-03-22T03:46:56;14.1;69.6
78541;SHT31;67835;51.968;5.646;2024-03-22T03:49:25;14.1;69.5
78541;SHT31;67835;51.968;5.646;2024-03-22T03:51:54;14.1;69.4
78541;SHT31;67835;51.968;5.646;2024-03-22T03:54:22;14.1;69.3
78541;SHT31;67835;51.968;5.646;2024-03-22T03:56:51;14.1;69.2
78541;SHT31;67835;51.968;5.646;2024-03-22T03:59:19;14.1;69.1
78541;SHT31;67835;51.968;5.646;2024-03-22T04:01:48;14.2;68.9
78541;SHT31;67835;51.968;5.646;2024-03-22T04:04:16;14.2;68.6
78541;SHT31;67835;51.968;5.646;2024-03-22T04:06:45;14.2;68.4
78541;SHT31;67835;51.968;5.646;2024-03-22T04:09:16;14.2;68.3
78541;SHT31;67835;51.968;5.646;2024-03-22T04:11:44;14.2;68.2
78541;SHT31;67835;51.968;5.646;2024-03-22T04:14:14;14.2;68.1
78541;SHT31;67835;51.968;5.646;2024-03-22T04:16:42;14.1;68.2
78541;SHT31;67835;51.968;5.646;2024-03-22T04:19:11;14.1;68.2
78541;SHT31;67835;51.968;5.646;2024-03-22T04:21:39;14.1;67.7
78541;SHT31;67835;51.968;5.646;2024-03-22T04:24:08;14.1;67.5
78541;SHT31;67835;51.968;5.646;2024-03-22T04:26:36;14.1;67.5
78541;SHT31;67835;51.968;5.646;2024-03-22T04:29:05;14.1;67.5
78541;SHT31;67835;51.968;5.646;2024-03-22T04:31:33;14.1;67.1
78541;SHT31;67835;51.968;5.646;2024-03-22T04:34:02;14.0;66.9
78541;SHT31;67835;51.968;5.646;2024-03-22T04:36:32;14.0;66.7
78541;SHT31;67835;51.968;5.646;2024-03-22T04:39:02;14.0;66.5
78541;SHT31;67835;51.968;5.646;2024-03-22T04:41:31;14.0;66.3
78541;SHT31;67835;51.968;5.646;2024-03-22T04:43:59;14.0;66.1
78541;SHT31;67835;51.968;5.646;2024-03-22T04:46:30;14.0;66.1
78541;SHT31;67835;51.968;5.646;2024-03-22T04:48:58;13.9;65.9
78541;SHT31;67835;51.968;5.646;2024-03-22T04:51:27;13.9;65.8
78541;SHT31;67835;51.968;5.646;2024-03-22T04:53:55;13.9;65.8
78541;SHT31;67835;51.968;5.646;2024-03-22T04:56:24;13.9;65.9
78541;SHT31;67835;51.968;5.646;2024-03-22T04:58:52;13.9;66.0
78541;SHT31;67835;51.968;5.646;2024-03-22T05:01:21;13.9;66.0
78541;SHT31;67835;51.968;5.646;2024-03-22T05:03:50;13.9;65.8
78541;SHT31;67835;51.968;5.646;2024-03-22T05:06:18;13.8;65.8
78541;SHT31;67835;51.968;5.646;2024-03-22T05:08:47;13.8;65.7
78541;SHT31;67835;51.968;5.646;2024-03-22T05:11:16;13.8;65.6
78541;SHT31;67835;51.968;5.646;2024-03-22T05:13:44;13.8;65.5
78541;SHT31;67835;51.968;5.646;2024-03-22T05:16:13;13.7;65.7
78541;SHT31;67835;51.968;5.646;2024-03-22T05:18:42;13.7;65.8
78541;SHT31;67835;51.968;5.646;2024-03-22T05:21:11;13.7;66.0
78541;SHT31;67835;51.968;5.646;2024-03-22T05:23:39;13.7;66.2
78541;SHT31;67835;51.968;5.646;2024-03-22T05:26:08;13.6;66.3
78541;SHT31;67835;51.968;5.646;2024-03-22T05:28:37;13.6;66.5
78541;SHT31;67835;51.968;5.646;2024-03-22T05:31:05;13.6;66.6
78541;SHT31;67835;51.968;5.646;2024-03-22T05:33:34;13.6;66.7
78541;SHT31;67835;51.968;5.646;2024-03-22T05:36:03;13.6;66.8
78541;SHT31;67835;51.968;5.646;2024-03-22T05:38:32;13.6;67.0
78541;SHT31;67835;51.968;5.646;2024-03-22T05:41:05;13.6;67.0
78541;SHT31;67835;51.968;5.646;2024-03-22T05:43:34;13.6;66.9
78541;SHT31;67835;51.968;5.646;2024-03-22T05:46:03;13.6;66.9
78541;SHT31;67835;51.968;5.646;2024-03-22T05:48:32;13.6;66.7
78541;SHT31;67835;51.968;5.646;2024-03-22T05:51:00;13.6;66.7
78541;SHT31;67835;51.968;5.646;2024-03-22T05:53:29;13.5;66.8
78541;SHT31;67835;51.968;5.646;2024-03-22T05:55:57;13.5;66.7
78541;SHT31;67835;51.968;5.646;2024-03-22T05:58:26;13.5;66.7
78541;SHT31;67835;51.968;5.646;2024-03-22T06:00:56;13.5;66.6
78541;SHT31;67835;51.968;5.646;2024-03-22T06:03:25;13.5;66.2
78541;SHT31;67835;51.968;5.646;2024-03-22T06:05:53;13.5;66.3
78541;SHT31;67835;51.968;5.646;2024-03-22T06:08:26;13.5;66.4
78541;SHT31;67835;51.968;5.646;2024-03-22T06:10:55;13.5;66.4
78541;SHT31;67835;51.968;5.646;2024-03-22T06:13:24;13.5;66.2
78541;SHT31;67835;51.968;5.646;2024-03-22T06:15:53;13.5;66.2
78541;SHT31;67835;51.968;5.646;2024-03-22T06:18:23;13.5;66.3
78541;SHT31;67835;51.968;5.646;2024-03-22T06:20:52;13.5;66.4
78541;SHT31;67835;51.968;5.646;2024-03-22T06:23:22;13.5;66.3
78541;SHT31;67835;51.968;5.646;2024-03-22T06:25:54;13.5;66.4
78541;SHT31;67835;51.968;5.646;2024-03-22T06:28:23;13.5;66.5
78541;SHT31;67835;51.968;5.646;2024-03-22T06:30:52;13.5;66.2
78541;SHT31;67835;51.968;5.646;2024-03-22T06:33:21;13.5;66.2
78541;SHT31;67835;51.968;5.646;2024-03-22T06:35:49;13.5;66.1
78541;SHT31;67835;51.968;5.646;2024-03-22T06:38:18;13.5;65.9
78541;SHT31;67835;51.968;5.646;2024-03-22T06:40:46;13.5;66.0
78541;SHT31;67835;51.968;5.646;2024-03-22T06:43:15;13.5;66.1
78541;SHT31;67835;51.968;5.646;2024-03-22T06:45:44;13.5;66.0
78541;SHT31;67835;51.968;5.646;2024-03-22T06:48:15;13.6;66.2
78541;SHT31;67835;51.968;5.646;2024-03-22T06:50:43;13.6;66.1
78541;SHT31;67835;51.968;5.646;2024-03-22T06:53:12;13.6;65.9
78541;SHT31;67835;51.968;5.646;2024-03-22T06:55:41;13.6;66.1
78541;SHT31;67835;51.968;5.646;2024-03-22T06:58:09;13.6;65.8
78541;SHT31;67835;51.968;5.646;2024-03-22T07:00:38;13.7;65.6
78541;SHT31;67835;51.968;5.646;2024-03-22T07:03:07;13.7;65.5
78541;SHT31;67835;51.968;5.646;2024-03-22T07:05:35;13.7;65.4
78541;SHT31;67835;51.968;5.646;2024-03-22T07:08:04;13.7;65.5
78541;SHT31;67835;51.968;5.646;2024-03-22T07:10:33;13.7;65.3
78541;SHT31;67835;51.968;5.646;2024-03-22T07:13:01;13.7;65.7
78541;SHT31;67835;51.968;5.646;2024-03-22T07:15:30;13.7;65.6
78541;SHT31;67835;51.968;5.646;2024-03-22T07:17:59;13.7;65.8
78541;SHT31;67835;51.968;5.646;2024-03-22T07:20:30;13.8;66.0
78541;SHT31;67835;51.968;5.646;2024-03-22T07:22:59;13.8;65.8
78541;SHT31;67835;51.968;5.646;2024-03-22T07:25:27;13.9;65.5
78541;SHT31;67835;51.968;5.646;2024-03-22T07:27:56;14.0;65.2
78541;SHT31;67835;51.968;5.646;2024-03-22T07:30:25;14.0;64.7
78541;SHT31;67835;51.968;5.646;2024-03-22T07:32:54;14.1;64.7
78541;SHT31;67835;51.968;5.646;2024-03-22T07:35:23;14.1;64.6
78541;SHT31;67835;51.968;5.646;2024-03-22T07:37:52;14.1;64.5
78541;SHT31;67835;51.968;5.646;2024-03-22T07:40:20;14.2;64.2
78541;SHT31;67835;51.968;5.646;2024-03-22T07:42:49;14.2;63.7
78541;SHT31;67835;51.968;5.646;2024-03-22T07:45:17;14.3;63.7
78541;SHT31;67835;51.968;5.646;2024-03-22T07:47:46;14.3;63.6
78541;SHT31;67835;51.968;5.646;2024-03-22T07:50:15;14.3;63.4
78541;SHT31;67835;51.968;5.646;2024-03-22T07:52:44;14.3;63.5
78541;SHT31;67835;51.968;5.646;2024-03-22T07:55:12;14.3;63.4
78541;SHT31;67835;51.968;5.646;2024-03-22T07:57:43;14.4;63.4
78541;SHT31;67835;51.968;5.646;2024-03-22T08:00:15;14.4;63.5
78541;SHT31;67835;51.968;5.646;2024-03-22T08:02:44;14.4;63.2
78541;SHT31;67835;51.968;5.646;2024-03-22T08:05:15;14.4;63.3
78541;SHT31;67835;51.968;5.646;2024-03-22T08:07:43;14.4;63.5
78541;SHT31;67835;51.968;5.646;2024-03-22T08:10:12;14.4;63.4
78541;SHT31;67835;51.968;5.646;2024-03-22T08:12:42;14.5;63.1
78541;SHT31;67835;51.968;5.646;2024-03-22T08:15:11;14.5;62.8
78541;SHT31;67835;51.968;5.646;2024-03-22T08:17:40;14.5;63.3
78541;SHT31;67835;51.968;5.646;2024-03-22T08:20:10;14.5;63.6
78541;SHT31;67835;51.968;5.646;2024-03-22T08:22:39;14.5;63.3
78541;SHT31;67835;51.968;5.646;2024-03-22T08:25:08;14.5;63.0
78541;SHT31;67835;51.968;5.646;2024-03-22T08:27:36;14.5;63.0
78541;SHT31;67835;51.968;5.646;2024-03-22T08:30:06;14.5;63.2
78541;SHT31;67835;51.968;5.646;2024-03-22T08:32:37;14.5;62.7
78541;SHT31;67835;51.968;5.646;2024-03-22T08:35:06;14.5;62.7
78541;SHT31;67835;51.968;5.646;2024-03-22T08:37:35;14.5;63.1
78541;SHT31;67835;51.968;5.646;2024-03-22T08:40:05;14.5;62.9
78541;SHT31;67835;51.968;5.646;2024-03-22T08:42:34;14.5;63.1
78541;SHT31;67835;51.968;5.646;2024-03-22T08:45:04;14.4;63.8
78541;SHT31;67835;51.968;5.646;2024-03-22T08:47:33;14.4;64.4
78541;SHT31;67835;51.968;5.646;2024-03-22T08:50:02;14.4;65.1
78541;SHT31;67835;51.968;5.646;2024-03-22T08:52:31;14.3;65.4
78541;SHT31;67835;51.968;5.646;2024-03-22T08:55:02;14.3;65.6
78541;SHT31;67835;51.968;5.646;2024-03-22T08:57:35;14.2;65.3
78541;SHT31;67835;51.968;5.646;2024-03-22T09:00:04;14.2;65.1
78541;SHT31;67835;51.968;5.646;2024-03-22T09:02:36;14.2;65.2
78541;SHT31;67835;51.968;5.646;2024-03-22T09:05:06;14.2;64.9
78541;SHT31;67835;51.968;5.646;2024-03-22T09:07:35;14.2;64.9
78541;SHT31;67835;51.968;5.646;2024-03-22T09:10:05;14.1;64.7
78541;SHT31;67835;51.968;5.646;2024-03-22T09:12:34;14.1;64.5
78541;SHT31;67835;51.968;5.646;2024-03-22T09:15:03;14.1;64.9
78541;SHT31;67835;51.968;5.646;2024-03-22T09:17:34;14.1;65.2
78541;SHT31;67835;51.968;5.646;2024-03-22T09:20:03;14.1;65.6
78541;SHT31;67835;51.968;5.646;2024-03-22T09:22:34;14.1;66.1
78541;SHT31;67835;51.968;5.646;2024-03-22T09:25:03;14.1;66.1
78541;SHT31;67835;51.968;5.646;2024-03-22T09:27:32;14.0;66.7
78541;SHT31;67835;51.968;5.646;2024-03-22T09:30:01;14.0;66.7
78541;SHT31;67835;51.968;5.646;2024-03-22T09:32:30;14.0;66.3
78541;SHT31;67835;51.968;5.646;2024-03-22T09:34:59;14.0;66.5
78541;SHT31;67835;51.968;5.646;2024-03-22T09:37:27;14.0;66.2
78541;SHT31;67835;51.968;5.646;2024-03-22T09:39:56;13.9;66.4
78541;SHT31;67835;51.968;5.646;2024-03-22T09:42:25;13.9;66.1
78541;SHT31;67835;51.968;5.646;2024-03-22T09:44:54;13.9;66.2
78541;SHT31;67835;51.968;5.646;2024-03-22T09:47:27;13.9;66.3
78541;SHT31;67835;51.968;5.646;2024-03-22T09:49:58;14.0;65.8
78541;SHT31;67835;51.968;5.646;2024-03-22T09:52:30;14.0;65.8
78541;SHT31;67835;51.968;5.646;2024-03-22T09:54:59;14.0;66.1
78541;SHT31;67835;51.968;5.646;2024-03-22T09:57:31;14.0;66.0
78541;SHT31;67835;51.968;5.646;2024-03-22T10:00:00;14.0;65.9
78541;SHT31;67835;51.968;5.646;2024-03-22T10:02:30;14.0;66.2
78541;SHT31;67835;51.968;5.646;2024-03-22T10:04:59;14.0;66.3
78541;SHT31;67835;51.968;5.646;2024-03-22T10:07:28;14.0;67.1
78541;SHT31;67835;51.968;5.646;2024-03-22T10:09:59;14.0;67.9
78541;SHT31;67835;51.968;5.646;2024-03-22T10:12:29;13.9;68.7
78541;SHT31;67835;51.968;5.646;2024-03-22T10:14:58;13.9;69.3
78541;SHT31;67835;51.968;5.646;2024-03-22T10:17:28;13.9;69.6
78541;SHT31;67835;51.968;5.646;2024-03-22T10:19:58;13.9;70.0
78541;SHT31;67835;51.968;5.646;2024-03-22T10:22:26;13.9;70.4
78541;SHT31;67835;51.968;5.646;2024-03-22T10:24:55;13.9;70.4
78541;SHT31;67835;51.968;5.646;2024-03-22T10:27:28;13.9;70.5
78541;SHT31;67835;51.968;5.646;2024-03-22T10:29:58;13.9;71.0
78541;SHT31;67835;51.968;5.646;2024-03-22T10:32:27;13.9;71.2
78541;SHT31;67835;51.968;5.646;2024-03-22T10:34:59;13.9;71.5
78541;SHT31;67835;51.968;5.646;2024-03-22T10:37:30;13.9;71.9
78541;SHT31;67835;51.968;5.646;2024-03-22T10:40:02;13.9;72.2
78541;SHT31;67835;51.968;5.646;2024-03-22T10:42:37;13.9;71.8
78541;SHT31;67835;51.968;5.646;2024-03-22T10:45:08;13.9;72.1
78541;SHT31;67835;51.968;5.646;2024-03-22T10:47:37;13.9;71.9
78541;SHT31;67835;51.968;5.646;2024-03-22T10:50:09;13.9;71.6
78541;SHT31;67835;51.968;5.646;2024-03-22T10:52:39;13.9;71.6
78541;SHT31;67835;51.968;5.646;2024-03-22T10:55:17;13.9;71.3
78541;SHT31;67835;51.968;5.646;2024-03-22T10:57:51;13.9;71.6
78541;SHT31;67835;51.968;5.646;2024-03-22T11:00:29;13.9;71.6
78541;SHT31;67835;51.968;5.646;2024-03-22T11:02:59;13.9;71.3
78541;SHT31;67835;51.968;5.646;2024-03-22T11:05:28;13.9;71.6
78541;SHT31;67835;51.968;5.646;2024-03-22T11:08:03;13.9;71.7
78541;SHT31;67835;51.968;5.646;2024-03-22T11:10:34;13.9;71.9
78541;SHT31;67835;51.968;5.646;2024-03-22T11:13:05;13.9;72.0
78541;SHT31;67835;51.968;5.646;2024-03-22T11:15:34;14.0;71.7
78541;SHT31;67835;51.968;5.646;2024-03-22T11:18:03;14.0;71.4
78541;SHT31;67835;51.968;5.646;2024-03-22T11:20:31;13.9;71.4
78541;SHT31;67835;51.968;5.646;2024-03-22T11:23:05;13.9;71.7
78541;SHT31;67835;51.968;5.646;2024-03-22T11:25:35;13.9;72.1
78541;SHT31;67835;51.968;5.646;2024-03-22T11:28:05;13.9;72.0
78541;SHT31;67835;51.968;5.646;2024-03-22T11:30:34;13.9;72.3
78541;SHT31;67835;51.968;5.646;2024-03-22T11:33:04;13.9;72.4
78541;SHT31;67835;51.968;5.646;2024-03-22T11:35:35;13.8;72.7
78541;SHT31;67835;51.968;5.646;2024-03-22T11:38:04;13.8;73.1
78541;SHT31;67835;51.968;5.646;2024-03-22T11:40:33;13.8;73.0
78541;SHT31;67835;51.968;5.646;2024-03-22T11:43:02;13.8;73.4
78541;SHT31;67835;51.968;5.646;2024-03-22T11:45:34;13.8;73.4
78541;SHT31;67835;51.968;5.646;2024-03-22T11:48:05;13.8;73.0
78541;SHT31;67835;51.968;5.646;2024-03-22T11:50:36;13.8;72.9
78541;SHT31;67835;51.968;5.646;2024-03-22T11:53:06;13.8;72.8
78541;SHT31;67835;51.968;5.646;2024-03-22T11:55:36;13.8;73.0
78541;SHT31;67835;51.968;5.646;2024-03-22T11:58:05;13.8;73.1
78541;SHT31;67835;51.968;5.646;2024-03-22T12:00:35;13.8;73.5
78541;SHT31;67835;51.968;5.646;2024-03-22T12:03:05;13.8;73.2
78541;SHT31;67835;51.968;5.646;2024-03-22T12:05:34;13.7;73.4
78541;SHT31;67835;51.968;5.646;2024-03-22T12:08:03;13.7;73.8
78541;SHT31;67835;51.968;5.646;2024-03-22T12:10:32;13.8;73.9
78541;SHT31;67835;51.968;5.646;2024-03-22T12:13:01;13.8;73.8
78541;SHT31;67835;51.968;5.646;2024-03-22T12:15:30;13.8;74.2
78541;SHT31;67835;51.968;5.646;2024-03-22T12:17:59;13.8;74.4
78541;SHT31;67835;51.968;5.646;2024-03-22T12:20:28;13.8;73.9
78541;SHT31;67835;51.968;5.646;2024-03-22T12:22:56;13.8;73.7
78541;SHT31;67835;51.968;5.646;2024-03-22T12:25:25;13.8;73.7
78541;SHT31;67835;51.968;5.646;2024-03-22T12:27:53;13.9;73.7
78541;SHT31;67835;51.968;5.646;2024-03-22T12:30:22;13.9;74.5
78541;SHT31;67835;51.968;5.646;2024-03-22T12:32:52;13.9;74.3
78541;SHT31;67835;51.968;5.646;2024-03-22T12:35:21;13.9;74.3
78541;SHT31;67835;51.968;5.646;2024-03-22T12:37:51;13.9;74.1
78541;SHT31;67835;51.968;5.646;2024-03-22T12:40:19;14.0;73.8
78541;SHT31;67835;51.968;5.646;2024-03-22T12:42:48;14.0;73.4
78541;SHT31;67835;51.968;5.646;2024-03-22T12:45:16;14.0;73.2
78541;SHT31;67835;51.968;5.646;2024-03-22T12:47:45;14.0;73.3
78541;SHT31;67835;51.968;5.646;2024-03-22T12:50:14;14.0;73.2
78541;SHT31;67835;51.968;5.646;2024-03-22T12:52:43;14.1;73.2
78541;SHT31;67835;51.968;5.646;2024-03-22T12:55:13;14.1;73.4
78541;SHT31;67835;51.968;5.646;2024-03-22T12:57:41;14.1;72.9
78541;SHT31;67835;51.968;5.646;2024-03-22T13:00:11;14.1;72.8
78541;SHT31;67835;51.968;5.646;2024-03-22T13:02:45;14.1;73.2
78541;SHT31;67835;51.968;5.646;2024-03-22T13:05:14;14.1;73.0
78541;SHT31;67835;51.968;5.646;2024-03-22T13:07:43;14.1;73.4
78541;SHT31;67835;51.968;5.646;2024-03-22T13:10:12;14.1;73.4
78541;SHT31;67835;51.968;5.646;2024-03-22T13:12:40;14.1;72.8
78541;SHT31;67835;51.968;5.646;2024-03-22T13:15:09;14.2;72.9
78541;SHT31;67835;51.968;5.646;2024-03-22T13:17:38;14.2;72.9
78541;SHT31;67835;51.968;5.646;2024-03-22T13:20:09;14.3;73.2
78541;SHT31;67835;51.968;5.646;2024-03-22T13:22:41;14.3;72.1
78541;SHT31;67835;51.968;5.646;2024-03-22T13:25:10;14.4;71.3
78541;SHT31;67835;51.968;5.646;2024-03-22T13:27:39;14.4;70.3
78541;SHT31;67835;51.968;5.646;2024-03-22T13:30:09;14.4;68.7
78541;SHT31;67835;51.968;5.646;2024-03-22T13:32:39;14.5;68.4
78541;SHT31;67835;51.968;5.646;2024-03-22T13:35:08;14.5;68.0
78541;SHT31;67835;51.968;5.646;2024-03-22T13:37:37;14.5;67.9
78541;SHT31;67835;51.968;5.646;2024-03-22T13:40:07;14.5;67.9
78541;SHT31;67835;51.968;5.646;2024-03-22T13:42:36;14.6;67.2
78541;SHT31;67835;51.968;5.646;2024-03-22T13:45:05;14.6;67.4
78541;SHT31;67835;51.968;5.646;2024-03-22T13:47:34;14.6;67.5
78541;SHT31;67835;51.968;5.646;2024-03-22T13:50:04;14.7;67.5
78541;SHT31;67835;51.968;5.646;2024-03-22T13:52:37;14.7;67.4
78541;SHT31;67835;51.968;5.646;2024-03-22T13:55:07;14.7;67.1
78541;SHT31;67835;51.968;5.646;2024-03-22T13:57:36;14.7;67.6
78541;SHT31;67835;51.968;5.646;2024-03-22T14:00:06;14.7;67.9
78541;SHT31;67835;51.968;5.646;2024-03-22T14:02:40;14.7;67.9
78541;SHT31;67835;51.968;5.646;2024-03-22T14:05:10;14.7;67.5
78541;SHT31;67835;51.968;5.646;2024-03-22T14:07:39;14.7;67.5
78541;SHT31;67835;51.968;5.646;2024-03-22T14:10:09;14.7;67.2
78541;SHT31;67835;51.968;5.646;2024-03-22T14:12:39;14.7;66.5
78541;SHT31;67835;51.968;5.646;2024-03-22T14:15:08;14.7;66.2
78541;SHT31;67835;51.968;5.646;2024-03-22T14:17:37;14.7;66.2
78541;SHT31;67835;51.968;5.646;2024-03-22T14:20:06;14.6;66.4
78541;SHT31;67835;51.968;5.646;2024-03-22T14:22:38;14.6;66.5
78541;SHT31;67835;51.968;5.646;2024-03-22T14:25:08;14.6;66.4
78541;SHT31;67835;51.968;5.646;2024-03-22T14:27:40;14.6;66.6
78541;SHT31;67835;51.968;5.646;2024-03-22T14:30:13;14.6;66.8
78541;SHT31;67835;51.968;5.646;2024-03-22T14:32:41;14.6;67.2
78541;SHT31;67835;51.968;5.646;2024-03-22T14:35:10;14.6;67.6
78541;SHT31;67835;51.968;5.646;2024-03-22T14:37:40;14.6;66.9
78541;SHT31;67835;51.968;5.646;2024-03-22T14:40:09;14.6;66.1
78541;SHT31;67835;51.968;5.646;2024-03-22T14:42:39;14.6;65.2
78541;SHT31;67835;51.968;5.646;2024-03-22T14:45:08;14.6;65.0
78541;SHT31;67835;51.968;5.646;2024-03-22T14:47:37;14.7;65.1
78541;SHT31;67835;51.968;5.646;2024-03-22T14:50:07;14.7;65.0
78541;SHT31;67835;51.968;5.646;2024-03-22T14:52:35;14.7;65.3
78541;SHT31;67835;51.968;5.646;2024-03-22T14:55:05;14.7;65.2
78541;SHT31;67835;51.968;5.646;2024-03-22T14:57:35;14.7;65.5
78541;SHT31;67835;51.968;5.646;2024-03-22T15:00:05;14.7;65.5
78541;SHT31;67835;51.968;5.646;2024-03-22T15:02:36;14.7;65.6
78541;SHT31;67835;51.968;5.646;2024-03-22T15:05:06;14.6;65.4
78541;SHT31;67835;51.968;5.646;2024-03-22T15:07:35;14.6;65.8
78541;SHT31;67835;51.968;5.646;2024-03-22T15:10:04;14.6;66.0
78541;SHT31;67835;51.968;5.646;2024-03-22T15:12:32;14.6;65.7
78541;SHT31;67835;51.968;5.646;2024-03-22T15:15:01;14.5;66.2
78541;SHT31;67835;51.968;5.646;2024-03-22T15:17:30;14.5;66.3
78541;SHT31;67835;51.968;5.646;2024-03-22T15:19:59;14.4;66.1
78541;SHT31;67835;51.968;5.646;2024-03-22T15:22:30;14.4;66.7
78541;SHT31;67835;51.968;5.646;2024-03-22T15:24:58;14.4;67.3
78541;SHT31;67835;51.968;5.646;2024-03-22T15:27:27;14.4;67.6
78541;SHT31;67835;51.968;5.646;2024-03-22T15:29:55;14.4;67.0
78541;SHT31;67835;51.968;5.646;2024-03-22T15:32:24;14.3;67.1
78541;SHT31;67835;51.968;5.646;2024-03-22T15:34:55;14.3;67.7
78541;SHT31;67835;51.968;5.646;2024-03-22T15:37:23;14.3;67.8
78541;SHT31;67835;51.968;5.646;2024-03-22T15:39:53;14.3;67.2
78541;SHT31;67835;51.968;5.646;2024-03-22T15:42:21;14.3;67.6
78541;SHT31;67835;51.968;5.646;2024-03-22T15:44:50;14.3;67.6
78541;SHT31;67835;51.968;5.646;2024-03-22T15:47:18;14.3;67.7
78541;SHT31;67835;51.968;5.646;2024-03-22T15:49:47;14.3;67.2
78541;SHT31;67835;51.968;5.646;2024-03-22T15:52:16;14.3;67.4
78541;SHT31;67835;51.968;5.646;2024-03-22T15:54:45;14.3;67.4
78541;SHT31;67835;51.968;5.646;2024-03-22T15:57:15;14.3;67.1
78541;SHT31;67835;51.968;5.646;2024-03-22T15:59:43;14.3;67.2
78541;SHT31;67835;51.968;5.646;2024-03-22T16:02:12;14.3;67.2
78541;SHT31;67835;51.968;5.646;2024-03-22T16:04:40;14.3;66.6
78541;SHT31;67835;51.968;5.646;2024-03-22T16:07:09;14.3;67.3
78541;SHT31;67835;51.968;5.646;2024-03-22T16:09:38;14.3;67.0
78541;SHT31;67835;51.968;5.646;2024-03-22T16:12:08;14.3;67.3
78541;SHT31;67835;51.968;5.646;2024-03-22T16:14:37;14.3;67.4